メインページ
METAR-TAF:

METAR-TAF

空港 :

ルイス・ムニョス・マリン国際空港

サンフアン, プエルトリコ, アメリカ合衆国

緯度: 18-27N, 経度: 066-00W, 海抜: 3m

現時点の気象観測

当レポートは30分前の03:56(UTC)に作成
無風
気温 25°C
湿度 83%
気圧 1020 hPa
視程: 16.1km
高度2200ftの雲はほとんどない
高度3700ftの雲はほとんどない

METAR: TJSJ 150356Z 00000KT 10SM FEW022 FEW037 25/22 A3013 RMK AO2 SLP202 T02500217 403000233

時間: 00:26 (04:26 UTC)

予報

当レポートは4時間46分前の23:40(UTC)に作成
予報は15日の 00時(UTC)から 15日の 24時(UTC)まで有効
の風 10kt
視程: 10km
高度3000ftの雲はほとんどない
高度7000ftの雲は散在している
近辺でにわか雨
15日の 1200時(UTC)から
東/北東の風 16kt
視程: 9.7km
高度2500ftの雲はほとんどない
高度4000ftの千切れ雲あり
高度7000ftの千切れ雲あり
にわか雨
15日の 1600時(UTC)から
の風 16kt、最大23ktの突風を伴う
視程: 10km
高度2500ftの雲は散在している
高度4000ftの雲は散在している
高度7000ftの千切れ雲あり
近辺でにわか雨
15日の 2300時(UTC)から
の風 10kt
視程: 10km
高度2500ftの雲は散在している
高度3500ftの雲は散在している
高度5000ftの雲は散在している
近辺でにわか雨

TAF: TJSJ 142340Z 1500/1524 09010KT P6SM VCSH FEW030 SCT070 FM151200 07016KT 6SM SHRA FEW025 BKN040 BKN070 FM151600 08016G23KT P6SM VCSH SCT025 SCT040 BKN070 FM152300 09010KT P6SM VCSH SCT025 SCT035 SCT050

4,000以上の空港の気象観測と天気予報(METAR報とTAF報)

利用可能な観測所は地図上に黄色い丸と赤い丸で示す。

丸の上にカーソルを重ねると観測所名を参照できる。

次にクリックすると気象観測と天気予報を参照できる。

マップの切り替え:黒色「×」印の緑ボタンをクリックして拡大、「-」印の緑ボタンをクリックして縮小、緑色の三角印をクリックして隣りの地図に切り替え


METAR-TAF: